createdAt,value
2019-06-08T00:00:13.035Z,16
2019-06-08T00:01:14.377Z,16.1
2019-06-08T00:02:14.682Z,16
2019-06-08T00:03:14.862Z,16
2019-06-08T00:04:16.493Z,16
2019-06-08T00:05:16.976Z,15.9
2019-06-08T00:08:20.956Z,15.9
2019-06-08T00:09:22.485Z,15.8
2019-06-08T00:10:25.307Z,15.8
2019-06-08T00:11:23.507Z,15.9
2019-06-08T00:12:24.318Z,15.9
2019-06-08T00:13:25.745Z,16
2019-06-08T00:14:27.152Z,16
2019-06-08T00:15:28.531Z,15.9
2019-06-08T00:16:29.925Z,15.8
2019-06-08T00:17:38.349Z,15.8
2019-06-08T00:18:32.556Z,15.9
2019-06-08T00:19:33.953Z,15.9
2019-06-08T00:20:35.346Z,15.8
2019-06-08T00:21:36.745Z,15.5
2019-06-08T00:27:43.246Z,15.7
2019-06-08T00:28:44.685Z,15.8
2019-06-08T00:29:46.070Z,15.7
2019-06-08T00:30:47.473Z,15.7
2019-06-08T00:31:48.871Z,15.8
2019-06-08T00:34:51.973Z,15.7
2019-06-08T00:35:53.375Z,15.7
2019-06-08T00:36:54.769Z,15.7
2019-06-08T00:37:56.165Z,15.7
2019-06-08T00:38:57.593Z,15.8
2019-06-08T00:39:58.983Z,15.8
2019-06-08T00:41:00.379Z,15.8
2019-06-08T00:42:01.787Z,15.8
2019-06-08T00:43:02.551Z,15.7
2019-06-08T00:44:03.983Z,15.7
2019-06-08T00:45:05.380Z,15.7
2019-06-08T00:46:06.768Z,15.7
2019-06-08T00:47:08.167Z,15.8
2019-06-08T00:48:09.554Z,15.7
2019-06-08T00:49:10.982Z,15.8
2019-06-08T00:51:13.781Z,15.7
2019-06-08T00:52:15.169Z,15.7
2019-06-08T00:53:15.479Z,15.7
2019-06-08T00:54:17.337Z,15.7
2019-06-08T00:55:17.531Z,15.7
2019-06-08T00:56:19.419Z,15.7
2019-06-08T00:57:20.107Z,15.7
2019-06-08T00:59:22.490Z,15.7
2019-06-08T01:00:24.493Z,15.7
2019-06-08T01:01:26.390Z,15.7
2019-06-08T01:02:26.758Z,15.7
2019-06-08T01:03:26.613Z,15.6
2019-06-08T01:04:29.089Z,15.6
2019-06-08T01:05:30.231Z,15.6
2019-06-08T01:07:31.769Z,15.6
2019-06-08T01:08:33.165Z,15.6
2019-06-08T01:11:36.857Z,15.4
2019-06-08T01:12:38.254Z,15.3
2019-06-08T01:15:41.303Z,15.3
2019-06-08T01:16:42.695Z,15.3
2019-06-08T01:17:44.083Z,15.3
2019-06-08T01:18:45.231Z,15.3
2019-06-08T01:19:46.615Z,15.3
2019-06-08T01:20:48.036Z,15.4
2019-06-08T01:21:49.435Z,15.4
2019-06-08T01:22:50.825Z,15.3
2019-06-08T01:23:51.683Z,15.3
2019-06-08T01:24:53.116Z,15.2
2019-06-08T01:25:54.508Z,15.3
2019-06-08T01:26:55.911Z,15.2
2019-06-08T01:27:57.299Z,15.1
2019-06-08T01:28:58.691Z,15
2019-06-08T01:30:00.128Z,15.1
2019-06-08T01:31:01.509Z,15.1
2019-06-08T01:35:05.711Z,15.1
2019-06-08T01:36:07.092Z,15.1
2019-06-08T01:37:08.483Z,15.1
2019-06-08T01:38:09.879Z,15.2
2019-06-08T01:39:11.275Z,15.2
2019-06-08T01:40:12.686Z,15.1
2019-06-08T01:41:14.073Z,15
2019-06-08T01:43:16.465Z,15
2019-06-08T01:44:17.263Z,15
2019-06-08T01:45:18.559Z,15
2019-06-08T01:46:19.949Z,15
2019-06-08T01:48:22.418Z,15
2019-06-08T01:49:24.004Z,15
2019-06-08T01:52:26.699Z,15
2019-06-08T01:54:29.702Z,14.9
2019-06-08T01:56:31.212Z,14.9
2019-06-08T01:57:31.672Z,14.9
2019-06-08T01:58:33.469Z,14.9
2019-06-08T02:00:40.659Z,14.9
2019-06-08T02:01:36.125Z,14.8
2019-06-08T02:03:38.659Z,14.7
2019-06-08T02:04:39.420Z,14.7
2019-06-08T02:05:40.822Z,14.8
2019-06-08T02:06:42.221Z,14.8
2019-06-08T02:07:43.649Z,14.9
2019-06-08T02:08:45.036Z,14.8
2019-06-08T02:09:46.433Z,14.9
2019-06-08T02:10:47.849Z,14.9
2019-06-08T02:12:50.374Z,14.9
2019-06-08T02:13:51.767Z,15
2019-06-08T02:15:54.140Z,14.9
2019-06-08T02:16:55.535Z,14.9
2019-06-08T02:17:56.931Z,14.9
2019-06-08T02:18:58.323Z,14.9
2019-06-08T02:19:59.718Z,14.9
2019-06-08T02:21:01.135Z,14.9
2019-06-08T02:22:02.523Z,15
2019-06-08T02:23:03.918Z,15
2019-06-08T02:24:05.314Z,14.9
2019-06-08T02:25:06.094Z,14.8
2019-06-08T02:26:07.517Z,14.7
2019-06-08T02:27:08.913Z,14.8
2019-06-08T02:28:10.302Z,14.8
2019-06-08T02:29:11.699Z,14.9
2019-06-08T02:30:13.104Z,14.9
2019-06-08T02:32:15.664Z,15
2019-06-08T02:33:17.062Z,15
2019-06-08T02:34:18.459Z,15
2019-06-08T02:35:19.225Z,15.1
2019-06-08T02:36:20.625Z,15
2019-06-08T02:37:22.051Z,15
2019-06-08T02:39:23.860Z,15
2019-06-08T02:42:28.351Z,15
2019-06-08T02:43:28.953Z,15
2019-06-08T02:44:29.908Z,15
2019-06-08T02:45:29.618Z,15
2019-06-08T02:46:30.928Z,15
2019-06-08T02:48:33.477Z,15.1
2019-06-08T02:50:35.071Z,15.1
2019-06-08T02:51:36.370Z,15.1
2019-06-08T02:52:36.287Z,15.1
2019-06-08T02:53:38.245Z,15.1
2019-06-08T02:54:39.385Z,15
2019-06-08T02:55:39.413Z,15
2019-06-08T02:56:41.059Z,15
2019-06-08T02:57:40.545Z,15
2019-06-08T02:58:41.935Z,15
2019-06-08T02:59:43.331Z,15
2019-06-08T03:05:49.792Z,15
2019-06-08T03:06:51.181Z,14.9
2019-06-08T03:11:57.102Z,15
2019-06-08T03:12:58.505Z,15
2019-06-08T03:16:01.332Z,14.9
2019-06-08T03:17:02.747Z,15
2019-06-08T03:18:04.139Z,14.9
2019-06-08T03:19:20.462Z,15
2019-06-08T03:20:06.225Z,15
2019-06-08T03:26:13.424Z,14.9
2019-06-08T03:28:15.181Z,14.9
2019-06-08T03:29:16.579Z,14.9
2019-06-08T03:30:19.206Z,14.9
2019-06-08T03:31:19.471Z,14.9
2019-06-08T03:33:22.092Z,14.8
2019-06-08T03:34:22.772Z,14.8
2019-06-08T03:35:24.172Z,14.8
2019-06-08T03:36:24.975Z,14.8
2019-06-08T03:37:26.384Z,14.8
2019-06-08T03:38:27.294Z,14.8
2019-06-08T03:39:27.875Z,14.8
2019-06-08T03:40:28.568Z,14.8
2019-06-08T03:41:29.432Z,14.7
2019-06-08T03:42:30.263Z,14.7
2019-06-08T03:43:31.680Z,14.7
2019-06-08T03:44:34.192Z,14.7
2019-06-08T03:45:34.357Z,14.7
2019-06-08T03:47:37.031Z,14.8
2019-06-08T03:48:37.249Z,14.8
2019-06-08T03:49:47.352Z,14.8
2019-06-08T03:50:40.137Z,14.8
2019-06-08T03:51:43.621Z,14.8
2019-06-08T03:53:42.520Z,14.8
2019-06-08T03:54:42.981Z,14.8
2019-06-08T03:55:45.370Z,14.8
2019-06-08T03:56:44.191Z,14.8
2019-06-08T03:58:47.861Z,14.7
2019-06-08T03:59:47.870Z,14.7
2019-06-08T04:00:49.113Z,14.7
2019-06-08T04:01:49.954Z,14.7
2019-06-08T04:05:53.219Z,14.7
2019-06-08T04:06:53.974Z,14.7
2019-06-08T04:07:55.400Z,14.7
2019-06-08T04:08:56.819Z,14.7
2019-06-08T04:09:58.202Z,14.6
2019-06-08T04:10:59.617Z,14.7
2019-06-08T04:12:00.993Z,14.7
2019-06-08T04:14:03.618Z,14.6
2019-06-08T04:15:04.434Z,14.7
2019-06-08T04:16:05.822Z,14.7
2019-06-08T04:17:06.645Z,14.6
2019-06-08T04:18:08.049Z,14.7
2019-06-08T04:21:11.712Z,14.7
2019-06-08T04:29:20.453Z,14.8
2019-06-08T04:30:21.859Z,14.8
2019-06-08T04:31:23.247Z,14.8
2019-06-08T04:34:26.950Z,14.8
2019-06-08T04:35:28.342Z,14.8
2019-06-08T04:36:29.735Z,14.8
2019-06-08T04:37:30.487Z,14.8
2019-06-08T04:38:31.889Z,14.8
2019-06-08T04:40:34.083Z,14.8
2019-06-08T04:41:35.497Z,14.8
2019-06-08T04:42:36.780Z,14.8
2019-06-08T04:43:38.441Z,14.8
2019-06-08T04:44:40.364Z,14.8
2019-06-08T04:45:41.073Z,14.8
2019-06-08T04:47:41.433Z,14.8
2019-06-08T04:48:42.824Z,14.8
2019-06-08T04:49:42.971Z,14.8
2019-06-08T04:51:45.226Z,14.8
2019-06-08T04:52:45.117Z,14.9
2019-06-08T04:53:47.177Z,14.9
2019-06-08T04:54:49.658Z,14.9
2019-06-08T04:55:49.418Z,14.9
2019-06-08T04:57:50.882Z,14.9
2019-06-08T04:59:52.542Z,14.9
2019-06-08T05:02:55.957Z,14.7
2019-06-08T05:04:58.522Z,14.8
2019-06-08T05:05:59.918Z,14.8
2019-06-08T05:07:01.312Z,14.8
2019-06-08T05:08:02.253Z,14.8
2019-06-08T05:09:03.652Z,14.8
2019-06-08T05:11:06.206Z,14.8
2019-06-08T05:12:07.595Z,14.8
2019-06-08T05:14:10.143Z,14.8
2019-06-08T05:16:15.550Z,14.8
2019-06-08T05:17:13.924Z,14.8
2019-06-08T05:18:14.736Z,14.9
2019-06-08T05:19:16.137Z,14.8
2019-06-08T05:21:18.144Z,14.9
2019-06-08T05:22:19.552Z,14.9
2019-06-08T05:23:20.995Z,14.9
2019-06-08T05:25:23.549Z,14.9
2019-06-08T05:26:24.947Z,14.9
2019-06-08T05:27:26.341Z,14.9
2019-06-08T05:28:27.112Z,14.9
2019-06-08T05:29:27.697Z,14.9
2019-06-08T05:30:29.120Z,14.9
2019-06-08T05:31:30.515Z,14.9
2019-06-08T05:32:31.911Z,14.9
2019-06-08T05:33:33.323Z,14.9
2019-06-08T05:35:35.406Z,14.8
2019-06-08T05:41:41.969Z,14.9
2019-06-08T05:42:44.096Z,14.9
2019-06-08T05:44:45.702Z,14.9
2019-06-08T05:45:46.119Z,14.9
2019-06-08T05:46:47.957Z,14.9
2019-06-08T05:47:48.343Z,14.9
2019-06-08T05:48:50.062Z,14.9
2019-06-08T05:49:50.048Z,14.9
2019-06-08T05:51:02.817Z,14.9
2019-06-08T05:51:51.595Z,14.9
2019-06-08T05:52:52.988Z,14.9
2019-06-08T05:53:54.384Z,14.9
2019-06-08T05:54:55.054Z,14.9
2019-06-08T05:55:56.469Z,14.8
2019-06-08T06:00:08.377Z,14.8
2019-06-08T06:01:01.562Z,14.8
2019-06-08T06:02:02.962Z,14.8
2019-06-08T06:03:04.349Z,14.8
2019-06-08T06:04:05.736Z,14.8
2019-06-08T06:05:07.218Z,14.8
2019-06-08T06:06:08.631Z,14.8
2019-06-08T06:09:11.616Z,14.8
2019-06-08T06:11:14.172Z,14.8
2019-06-08T06:12:15.566Z,14.8
2019-06-08T06:13:16.954Z,14.8
2019-06-08T06:14:18.352Z,14.8
2019-06-08T06:15:19.777Z,14.8
2019-06-08T06:16:21.179Z,14.8
2019-06-08T06:17:22.571Z,14.9
2019-06-08T06:18:23.988Z,14.9
2019-06-08T06:19:24.770Z,14.8
2019-06-08T06:20:26.215Z,14.8
2019-06-08T06:21:27.602Z,14.8
2019-06-08T06:22:28.543Z,14.8
2019-06-08T06:23:29.937Z,14.9
2019-06-08T06:24:31.340Z,14.8
2019-06-08T06:25:32.778Z,14.8
2019-06-08T06:26:34.176Z,14.9
2019-06-08T06:29:36.894Z,14.9
2019-06-08T06:32:39.750Z,15
2019-06-08T06:33:41.963Z,15
2019-06-08T06:37:48.920Z,15
2019-06-08T06:39:45.996Z,15.1
2019-06-08T06:41:48.550Z,15.1
2019-06-08T06:42:50.022Z,15.1
2019-06-08T06:46:53.875Z,15.1
2019-06-08T06:47:55.287Z,15.1
2019-06-08T06:49:57.159Z,15.1
2019-06-08T06:50:58.556Z,15.1
2019-06-08T06:51:59.986Z,15.1
2019-06-08T06:53:01.368Z,15.1
2019-06-08T06:54:02.783Z,15.1
2019-06-08T06:55:04.185Z,15.1
2019-06-08T06:57:06.743Z,15.1
2019-06-08T06:58:08.143Z,15.1
2019-06-08T06:59:09.529Z,15.1
2019-06-08T07:00:10.293Z,15.1
2019-06-08T07:01:11.689Z,15.1
2019-06-08T07:05:16.496Z,15.1
2019-06-08T07:07:19.052Z,15.1
2019-06-08T07:08:20.455Z,15.1
2019-06-08T07:09:21.838Z,15.1
2019-06-08T07:11:23.914Z,15.2
2019-06-08T07:12:25.333Z,15.2
2019-06-08T07:14:27.858Z,15.2
2019-06-08T07:15:29.252Z,15.2
2019-06-08T07:16:30.717Z,15.2
2019-06-08T07:17:31.512Z,15.2
2019-06-08T07:19:34.053Z,15.2
2019-06-08T07:20:34.812Z,15.2
2019-06-08T07:22:37.300Z,15.3
2019-06-08T07:23:37.880Z,15.3
2019-06-08T07:24:39.255Z,15.3
2019-06-08T07:25:40.660Z,15.4
2019-06-08T07:26:41.322Z,15.3
2019-06-08T07:27:42.752Z,15.3
2019-06-08T07:29:44.198Z,15.3
2019-06-08T07:30:44.995Z,15.4
2019-06-08T07:31:46.675Z,15.4
2019-06-08T07:35:49.955Z,15.5
2019-06-08T07:36:51.279Z,15.5
2019-06-08T07:37:52.004Z,15.5
2019-06-08T07:38:53.374Z,15.5
2019-06-08T07:39:53.749Z,15.5
2019-06-08T07:40:58.239Z,15.6
2019-06-08T07:41:56.053Z,15.6
2019-06-08T07:42:57.525Z,15.6
2019-06-08T07:43:58.929Z,15.6
2019-06-08T07:47:02.617Z,15.6
2019-06-08T07:48:04.021Z,15.5
2019-06-08T07:49:05.421Z,15.5
2019-06-08T07:53:09.524Z,15.5
2019-06-08T07:54:10.911Z,15.5
2019-06-08T07:55:12.327Z,15.5
2019-06-08T07:58:16.012Z,15.4
2019-06-08T07:59:17.420Z,15.4
2019-06-08T08:00:18.484Z,15.5
2019-06-08T08:01:32.841Z,15.5
2019-06-08T08:02:19.793Z,15.6
2019-06-08T08:03:21.217Z,15.6
2019-06-08T08:04:22.613Z,15.6
2019-06-08T08:05:24.003Z,15.5
2019-06-08T08:06:25.435Z,15.6
2019-06-08T08:07:26.851Z,15.5
2019-06-08T08:10:30.503Z,15.5
2019-06-08T08:11:31.304Z,15.6
2019-06-08T08:13:33.835Z,15.6
2019-06-08T08:14:38.382Z,15.6
2019-06-08T08:16:37.192Z,15.6
2019-06-08T08:17:38.632Z,15.6
2019-06-08T08:18:40.047Z,15.7
2019-06-08T08:21:43.136Z,15.6
2019-06-08T08:22:43.886Z,15.6
2019-06-08T08:23:45.287Z,15.7
2019-06-08T08:24:48.545Z,15.7
2019-06-08T08:25:47.545Z,15.7
2019-06-08T08:26:50.801Z,15.8
2019-06-08T08:27:50.656Z,15.7
2019-06-08T08:28:53.038Z,15.6
2019-06-08T08:31:53.998Z,15.6
2019-06-08T08:32:56.230Z,15.6
2019-06-08T08:33:58.451Z,15.6
2019-06-08T08:34:59.156Z,15.6
2019-06-08T08:36:00.383Z,15.7
2019-06-08T08:37:05.477Z,15.7
2019-06-08T08:39:02.540Z,15.7
2019-06-08T08:40:02.571Z,15.7
2019-06-08T08:41:07.517Z,15.7
2019-06-08T08:44:04.244Z,15.7
2019-06-08T08:45:04.684Z,15.8
2019-06-08T08:48:17.750Z,16
2019-06-08T08:49:10.121Z,16
2019-06-08T08:50:07.530Z,16
2019-06-08T08:51:08.894Z,16.1
2019-06-08T08:52:11.528Z,16.1
2019-06-08T08:53:11.620Z,16.1
2019-06-08T08:54:13.111Z,16.1
2019-06-08T08:55:14.191Z,16.1
2019-06-08T08:56:17.760Z,16.1
2019-06-08T08:57:18.091Z,16.1
2019-06-08T08:58:18.555Z,16.1
2019-06-08T09:00:19.243Z,16
2019-06-08T09:01:20.683Z,16
2019-06-08T09:02:21.739Z,16
2019-06-08T09:03:30.819Z,16
2019-06-08T09:04:23.619Z,16
2019-06-08T09:05:24.769Z,16
2019-06-08T09:06:27.950Z,16
2019-06-08T09:07:27.658Z,16.1
2019-06-08T09:08:29.768Z,16.1
2019-06-08T09:09:29.707Z,16.1
2019-06-08T09:10:31.092Z,16.1
2019-06-08T09:11:32.273Z,16.1
2019-06-08T09:15:37.829Z,16.1
2019-06-08T09:19:40.666Z,16.2
2019-06-08T09:20:42.168Z,16.2
2019-06-08T09:21:42.999Z,16.2
2019-06-08T09:24:48.391Z,16.2
2019-06-08T09:25:48.243Z,16.2
2019-06-08T09:26:48.351Z,16.2
2019-06-08T09:29:53.282Z,16.3
2019-06-08T09:30:52.182Z,16.4
2019-06-08T09:31:53.927Z,16.3
2019-06-08T09:32:56.999Z,16.3
2019-06-08T09:34:05.330Z,16.3
2019-06-08T09:35:01.241Z,16.3
2019-06-08T09:36:01.061Z,16.3
2019-06-08T09:37:00.063Z,16.3
2019-06-08T09:40:03.722Z,16.3
2019-06-08T09:41:04.836Z,16.3
2019-06-08T09:42:05.043Z,16.3
2019-06-08T09:43:10.203Z,16.2
2019-06-08T09:44:08.681Z,16.2
2019-06-08T09:47:12.260Z,16.4
2019-06-08T09:48:09.516Z,16.4
2019-06-08T09:51:11.648Z,16.4
2019-06-08T09:52:12.710Z,16.4
2019-06-08T09:53:23.562Z,16.5
2019-06-08T09:54:14.322Z,16.5
2019-06-08T09:55:14.806Z,16.6
2019-06-08T09:56:15.018Z,16.6
2019-06-08T09:57:18.705Z,16.6
2019-06-08T09:58:18.019Z,16.6
2019-06-08T09:59:19.164Z,16.7
2019-06-08T10:00:22.188Z,16.7
2019-06-08T10:01:20.151Z,16.8
2019-06-08T10:03:22.462Z,16.7
2019-06-08T10:04:25.622Z,16.7
2019-06-08T10:05:24.720Z,16.8
2019-06-08T10:06:25.670Z,16.9
2019-06-08T10:07:28.587Z,16.9
2019-06-08T10:08:28.332Z,16.9
2019-06-08T10:11:31.061Z,17
2019-06-08T10:12:32.112Z,17
2019-06-08T10:13:33.256Z,16.9
2019-06-08T10:14:34.186Z,16.9
2019-06-08T10:15:35.618Z,16.8
2019-06-08T10:16:38.142Z,16.8
2019-06-08T10:17:37.847Z,16.9
2019-06-08T10:19:39.378Z,16.9
2019-06-08T10:20:40.780Z,16.9
2019-06-08T10:21:43.188Z,17
2019-06-08T10:23:44.622Z,16.9
2019-06-08T10:24:48.814Z,16.9
2019-06-08T10:25:48.132Z,16.9
2019-06-08T10:26:47.746Z,16.8
2019-06-08T10:27:48.182Z,16.8
2019-06-08T10:28:51.225Z,16.9
2019-06-08T10:29:50.069Z,16.9
2019-06-08T10:30:51.507Z,16.7
2019-06-08T10:31:52.974Z,16.9
2019-06-08T10:33:56.109Z,17
2019-06-08T10:34:58.611Z,17.1
2019-06-08T10:36:00.467Z,17.1
2019-06-08T10:37:03.282Z,17.1
2019-06-08T10:38:02.482Z,17.2
2019-06-08T10:39:03.648Z,17.2
2019-06-08T10:40:03.451Z,17.3
2019-06-08T10:42:05.201Z,17.4
2019-06-08T10:43:04.852Z,17.5
2019-06-08T10:44:05.559Z,17.5
2019-06-08T10:46:11.791Z,17.4
2019-06-08T10:49:04.109Z,17.4
2019-06-08T10:51:05.839Z,17.6
2019-06-08T11:00:20.704Z,17.9
2019-06-08T11:02:18.748Z,17.9
2019-06-08T11:03:17.262Z,18
2019-06-08T11:06:20.994Z,18.1
2019-06-08T11:09:24.230Z,18.1
2019-06-08T11:10:24.952Z,18
2019-06-08T11:11:28.372Z,18.1
2019-06-08T11:12:28.366Z,18.1
2019-06-08T11:14:29.904Z,18.2
2019-06-08T11:15:31.295Z,18.2
2019-06-08T11:16:31.908Z,18.2
2019-06-08T11:17:32.650Z,18.2
2019-06-08T11:18:34.041Z,18.2
2019-06-08T11:19:37.634Z,18.2
2019-06-08T11:26:42.851Z,18.3
2019-06-08T11:27:44.264Z,18.3
2019-06-08T11:30:48.051Z,18.2
2019-06-08T11:31:50.916Z,18.2
2019-06-08T11:32:49.549Z,18.3
2019-06-08T11:33:50.970Z,18.3
2019-06-08T11:34:54.649Z,18.3
2019-06-08T11:36:53.911Z,18.4
2019-06-08T11:37:58.435Z,18.5
2019-06-08T11:39:57.919Z,18.5
2019-06-08T11:41:00.832Z,18.5
2019-06-08T11:42:00.267Z,18.6
2019-06-08T11:43:00.647Z,18.7
2019-06-08T11:44:03.251Z,18.8
2019-06-08T11:45:04.400Z,18.9
2019-06-08T11:46:04.728Z,18.9
2019-06-08T11:48:06.500Z,18.8
2019-06-08T11:49:11.631Z,18.9
2019-06-08T11:54:27.028Z,18.8
2019-06-08T11:55:13.291Z,18.8
2019-06-08T11:56:14.675Z,18.8
2019-06-08T11:58:22.071Z,18.8
2019-06-08T11:59:17.806Z,18.9
2019-06-08T12:00:27.356Z,18.9
2019-06-08T12:03:16.178Z,18.9
2019-06-08T12:07:20.359Z,18.8
2019-06-08T12:13:27.857Z,18.7
2019-06-08T12:14:28.077Z,18.7
2019-06-08T12:16:29.913Z,18.8
2019-06-08T12:19:33.169Z,18.7
2019-06-08T12:20:34.565Z,18.8
2019-06-08T12:21:35.966Z,18.7
2019-06-08T12:22:37.656Z,18.7
2019-06-08T12:24:42.229Z,18.8
2019-06-08T12:25:40.025Z,18.7
2019-06-08T12:27:42.556Z,18.8
2019-06-08T12:28:43.194Z,18.8
2019-06-08T12:29:43.781Z,18.9
2019-06-08T12:30:44.447Z,18.9
2019-06-08T12:34:48.849Z,19
2019-06-08T12:35:50.233Z,19
2019-06-08T12:37:52.311Z,19.1
2019-06-08T12:38:53.256Z,19.1
2019-06-08T12:39:54.669Z,19.2
2019-06-08T12:41:58.296Z,19.1
2019-06-08T12:42:59.645Z,19.1
2019-06-08T12:43:58.360Z,19.1
2019-06-08T12:47:01.396Z,19.2
2019-06-08T12:49:03.967Z,19.2
2019-06-08T12:50:04.653Z,19.2
2019-06-08T12:51:08.519Z,19.2
2019-06-08T12:52:08.572Z,19.2
2019-06-08T12:54:11.423Z,19.1
2019-06-08T12:57:09.725Z,19
2019-06-08T12:59:12.969Z,19.1
2019-06-08T13:00:10.177Z,19.2
2019-06-08T13:01:11.017Z,19
2019-06-08T13:02:15.583Z,19.1
2019-06-08T13:03:12.935Z,19.1
2019-06-08T13:04:13.761Z,19.1
2019-06-08T13:05:15.414Z,19.1
2019-06-08T13:06:15.994Z,19.2
2019-06-08T13:07:16.935Z,19.1
2019-06-08T13:09:19.268Z,19.1
2019-06-08T13:11:21.224Z,19.2
2019-06-08T13:14:23.404Z,19.1
2019-06-08T13:15:24.807Z,19
2019-06-08T13:18:27.634Z,19
2019-06-08T13:19:29.060Z,19
2019-06-08T13:20:30.452Z,19
2019-06-08T13:21:35.229Z,19
2019-06-08T13:22:32.571Z,19.1
2019-06-08T13:23:33.192Z,19.1
2019-06-08T13:24:34.473Z,19.1
2019-06-08T13:25:40.846Z,19.1
2019-06-08T13:26:37.271Z,19.1
2019-06-08T13:28:39.162Z,19.1
2019-06-08T13:29:40.601Z,19.1
2019-06-08T13:30:41.746Z,19.1
2019-06-08T13:33:45.280Z,19.2
2019-06-08T13:34:47.260Z,19.2
2019-06-08T13:35:47.966Z,19.1
2019-06-08T13:36:48.595Z,19.1
2019-06-08T13:37:49.977Z,19.1
2019-06-08T13:40:53.342Z,19.2
2019-06-08T13:41:54.106Z,19.2
2019-06-08T13:42:55.517Z,19.2
2019-06-08T13:43:58.052Z,19.2
2019-06-08T13:50:02.348Z,19.1
2019-06-08T13:51:03.679Z,19.1
2019-06-08T13:52:04.958Z,19.1
2019-06-08T13:53:05.673Z,19.1
2019-06-08T13:54:08.457Z,19.1
2019-06-08T13:55:08.044Z,19.2
2019-06-08T13:56:08.579Z,19.2
2019-06-08T13:58:10.082Z,19.2
2019-06-08T13:59:11.325Z,19.2
2019-06-08T14:00:13.314Z,19.2
2019-06-08T14:01:13.365Z,19.3
2019-06-08T14:02:13.694Z,19.3
2019-06-08T14:03:16.039Z,19.2
2019-06-08T14:04:17.906Z,19.2
2019-06-08T14:05:18.885Z,19.1
2019-06-08T14:06:18.954Z,19.1
2019-06-08T14:08:21.209Z,19.2
2019-06-08T14:09:21.754Z,19.3
2019-06-08T14:10:22.435Z,19.2
2019-06-08T14:13:27.667Z,19.3
2019-06-08T14:14:25.817Z,19.3
2019-06-08T14:15:28.190Z,19.3
2019-06-08T14:16:29.490Z,19.3
2019-06-08T14:17:28.165Z,19.3
2019-06-08T14:22:32.628Z,19.1
2019-06-08T14:23:33.927Z,19.2
2019-06-08T14:24:34.867Z,19.1
2019-06-08T14:25:47.745Z,19.1
2019-06-08T14:30:40.743Z,19.2
2019-06-08T14:31:42.041Z,19.1
2019-06-08T14:32:43.431Z,19.2
2019-06-08T14:36:48.968Z,19.3
2019-06-08T14:37:49.342Z,19.2
2019-06-08T14:38:50.764Z,19.2
2019-06-08T14:40:52.514Z,19.3
2019-06-08T14:41:53.161Z,19.1
2019-06-08T14:42:54.554Z,19.1
2019-06-08T14:50:02.224Z,19.2
2019-06-08T14:52:03.850Z,19.3
2019-06-08T14:53:04.974Z,19.2
2019-06-08T14:55:08.055Z,19.4
2019-06-08T14:56:09.077Z,19.3
2019-06-08T14:57:09.516Z,19.2
2019-06-08T14:59:11.818Z,19.3
2019-06-08T15:01:13.546Z,19.3
2019-06-08T15:02:14.967Z,19.3
2019-06-08T15:03:17.819Z,19.3
2019-06-08T15:04:19.207Z,19.2
2019-06-08T15:05:18.508Z,19.2
2019-06-08T15:10:22.019Z,19.4
2019-06-08T15:12:23.743Z,19.4
2019-06-08T15:13:25.355Z,19.5
2019-06-08T15:14:25.737Z,19.5
2019-06-08T15:15:28.802Z,19.6
2019-06-08T15:16:30.120Z,19.5
2019-06-08T15:17:28.940Z,19.5
2019-06-08T15:18:30.406Z,19.5
2019-06-08T15:20:30.716Z,19.5
2019-06-08T15:21:33.040Z,19.6
2019-06-08T15:22:33.498Z,19.6
2019-06-08T15:23:34.079Z,19.6
2019-06-08T15:24:37.535Z,19.6
2019-06-08T15:25:38.280Z,19.5
2019-06-08T15:26:42.739Z,19.5
2019-06-08T15:32:43.479Z,19.4
2019-06-08T15:33:44.942Z,19.4
2019-06-08T15:34:47.666Z,19.4
2019-06-08T15:35:47.820Z,19.5
2019-06-08T15:37:50.365Z,19.5
2019-06-08T15:38:51.498Z,19.6
2019-06-08T15:39:52.890Z,19.6
2019-06-08T15:40:57.599Z,19.6
2019-06-08T15:41:54.493Z,19.7
2019-06-08T15:42:55.350Z,19.7
2019-06-08T15:48:01.284Z,19.7
2019-06-08T15:51:03.295Z,19.7
2019-06-08T15:52:04.692Z,19.7
2019-06-08T15:57:10.642Z,19.9
2019-06-08T15:58:12.062Z,19.9
2019-06-08T15:59:13.295Z,19.9
2019-06-08T16:00:14.691Z,19.9
2019-06-08T16:01:15.673Z,20
2019-06-08T16:02:17.077Z,20
2019-06-08T16:03:18.540Z,20
2019-06-08T16:04:19.270Z,20
2019-06-08T16:09:25.940Z,20
2019-06-08T16:10:26.383Z,20
2019-06-08T16:12:28.399Z,20.1
2019-06-08T16:13:28.501Z,20.1
2019-06-08T16:14:28.893Z,20.1
2019-06-08T16:15:30.966Z,20.1
2019-06-08T16:16:31.389Z,20.1
2019-06-08T16:17:33.570Z,20.1
2019-06-08T16:18:34.015Z,20
2019-06-08T16:21:37.023Z,20
2019-06-08T16:22:38.415Z,20
2019-06-08T16:28:45.735Z,20
2019-06-08T16:29:47.118Z,20
2019-06-08T16:30:48.515Z,20
2019-06-08T16:31:48.810Z,20
2019-06-08T16:32:50.201Z,20
2019-06-08T16:33:51.634Z,20
2019-06-08T16:37:56.415Z,19.9
2019-06-08T16:38:57.821Z,20
2019-06-08T16:39:59.234Z,19.9
2019-06-08T16:41:00.630Z,19.9
2019-06-08T16:42:01.933Z,19.9
2019-06-08T16:43:02.549Z,20
2019-06-08T16:45:05.067Z,19.9
2019-06-08T16:46:06.464Z,19.9
2019-06-08T16:48:09.011Z,20
2019-06-08T16:49:10.419Z,20
2019-06-08T16:50:23.634Z,19.9
2019-06-08T16:51:12.310Z,20
2019-06-08T16:52:13.067Z,19.9
2019-06-08T16:53:14.517Z,19.8
2019-06-08T16:54:15.917Z,19.9
2019-06-08T16:55:17.307Z,19.8
2019-06-08T16:56:18.706Z,19.9
2019-06-08T16:59:21.580Z,20
2019-06-08T17:03:26.075Z,19.8
2019-06-08T17:04:26.851Z,19.8
2019-06-08T17:06:29.389Z,19.8
2019-06-08T17:08:34.773Z,19.8
2019-06-08T17:09:33.065Z,19.8
2019-06-08T17:10:34.614Z,19.9
2019-06-08T17:11:35.165Z,19.9
2019-06-08T17:12:36.966Z,19.9
2019-06-08T17:14:38.767Z,19.8
2019-06-08T17:15:40.384Z,19.8
2019-06-08T17:16:40.925Z,19.8
2019-06-08T17:17:42.318Z,19.8
2019-06-08T17:18:43.696Z,19.8
2019-06-08T17:19:45.148Z,19.8
2019-06-08T17:20:46.524Z,19.7
2019-06-08T17:21:47.920Z,19.7
2019-06-08T17:24:50.964Z,19.7
2019-06-08T17:25:52.358Z,19.8
2019-06-08T17:26:53.765Z,19.7
2019-06-08T17:27:55.175Z,19.7
2019-06-08T17:29:56.944Z,19.8
2019-06-08T17:31:58.760Z,19.7
2019-06-08T17:43:09.921Z,19.7
2019-06-08T17:44:11.332Z,19.6
2019-06-08T17:45:12.744Z,19.6
2019-06-08T17:46:14.186Z,19.6
2019-06-08T17:49:17.775Z,19.6
2019-06-08T17:50:19.170Z,19.7
2019-06-08T17:51:20.574Z,19.7
2019-06-08T17:52:21.962Z,19.6
2019-06-08T17:53:22.622Z,19.6
2019-06-08T17:54:24.037Z,19.6
2019-06-08T17:55:25.677Z,19.6
2019-06-08T17:56:27.064Z,19.6
2019-06-08T17:57:41.335Z,19.6
2019-06-08T17:58:29.216Z,19.5
2019-06-08T17:59:30.310Z,19.5
2019-06-08T18:00:31.709Z,19.5
2019-06-08T18:01:34.031Z,19.5
2019-06-08T18:02:33.785Z,19.4
2019-06-08T18:05:36.962Z,19.4
2019-06-08T18:07:38.938Z,19.4
2019-06-08T18:08:40.530Z,19.4
2019-06-08T18:09:40.624Z,19.3
2019-06-08T18:11:42.200Z,19.3
2019-06-08T18:14:44.799Z,19.3
2019-06-08T18:16:45.347Z,19.2
2019-06-08T18:17:48.207Z,19.2
2019-06-08T18:18:48.019Z,19.2
2019-06-08T18:19:49.581Z,19.2
2019-06-08T18:20:51.889Z,19.2
2019-06-08T18:22:51.253Z,19.1
2019-06-08T18:23:52.300Z,19.1
2019-06-08T18:24:53.706Z,19
2019-06-08T18:25:55.123Z,19
2019-06-08T18:26:58.217Z,19
2019-06-08T18:28:59.139Z,19
2019-06-08T18:30:07.983Z,19
2019-06-08T18:31:01.954Z,18.9
2019-06-08T18:35:07.538Z,18.9
2019-06-08T18:36:07.617Z,18.8
2019-06-08T18:37:08.474Z,18.9
2019-06-08T18:41:10.846Z,18.8
2019-06-08T18:43:12.966Z,18.7
2019-06-08T18:49:19.130Z,18.5
2019-06-08T18:50:19.764Z,18.5
2019-06-08T18:51:21.158Z,18.5
2019-06-08T18:54:23.745Z,18.3
2019-06-08T18:55:27.501Z,18.3
2019-06-08T18:56:27.557Z,18.3
2019-06-08T19:00:30.388Z,18.1
2019-06-08T19:01:31.314Z,18
2019-06-08T19:02:32.390Z,18
2019-06-08T19:03:33.030Z,18
2019-06-08T19:04:34.093Z,18
2019-06-08T19:06:37.753Z,18
2019-06-08T19:07:37.024Z,17.9
2019-06-08T19:08:40.689Z,17.9
2019-06-08T19:09:40.637Z,17.8
2019-06-08T19:10:41.039Z,17.8
2019-06-08T19:13:44.380Z,17.6
2019-06-08T19:15:52.334Z,17.5
2019-06-08T19:16:54.153Z,17.5
2019-06-08T19:18:52.737Z,17.6
2019-06-08T19:19:52.211Z,17.5
2019-06-08T19:20:53.389Z,17.6
2019-06-08T19:23:55.997Z,17.5
2019-06-08T19:24:56.759Z,17.4
2019-06-08T19:26:00.393Z,17.4
2019-06-08T19:30:01.742Z,17.3
2019-06-08T19:31:03.163Z,17.2
2019-06-08T19:34:07.600Z,17.1
2019-06-08T19:36:08.645Z,17
2019-06-08T19:37:10.349Z,17
2019-06-08T19:39:12.193Z,16.9
2019-06-08T19:40:12.951Z,16.9
2019-06-08T19:41:14.364Z,16.9
2019-06-08T19:42:17.514Z,16.9
2019-06-08T19:43:18.234Z,16.8
2019-06-08T19:44:18.370Z,16.9
2019-06-08T19:45:18.705Z,16.8
2019-06-08T19:46:20.144Z,16.8
2019-06-08T19:47:21.237Z,16.8
2019-06-08T19:48:22.694Z,16.7
2019-06-08T19:49:24.223Z,16.7
2019-06-08T19:50:25.071Z,16.7
2019-06-08T19:51:27.801Z,16.7
2019-06-08T19:52:26.632Z,16.7
2019-06-08T19:53:28.620Z,16.6
2019-06-08T19:54:29.105Z,16.6
2019-06-08T19:56:31.033Z,16.5
2019-06-08T19:57:31.965Z,16.5
2019-06-08T19:58:33.383Z,16.5
2019-06-08T20:00:34.817Z,16.5
2019-06-08T20:01:37.881Z,16.5